sensor_id;sensor_type;location;lat;lon;timestamp;temperature;humidity
8261;DHT22;64115;50.170;8.242;2023-02-12T00:01:49;4.30;99.90
8261;DHT22;64115;50.170;8.242;2023-02-12T00:04:16;4.30;99.90
8261;DHT22;64115;50.170;8.242;2023-02-12T00:06:43;4.30;99.90
8261;DHT22;64115;50.170;8.242;2023-02-12T00:09:10;4.40;99.90
8261;DHT22;64115;50.170;8.242;2023-02-12T00:11:38;4.40;99.90
8261;DHT22;64115;50.170;8.242;2023-02-12T00:14:05;4.40;99.90
8261;DHT22;64115;50.170;8.242;2023-02-12T00:16:32;4.40;99.90
8261;DHT22;64115;50.170;8.242;2023-02-12T00:18:59;4.40;99.90
8261;DHT22;64115;50.170;8.242;2023-02-12T00:21:27;4.30;99.90
8261;DHT22;64115;50.170;8.242;2023-02-12T00:23:54;4.40;99.90
8261;DHT22;64115;50.170;8.242;2023-02-12T00:26:22;4.40;99.90
8261;DHT22;64115;50.170;8.242;2023-02-12T00:28:51;4.40;99.90
8261;DHT22;64115;50.170;8.242;2023-02-12T00:31:21;4.40;99.90
8261;DHT22;64115;50.170;8.242;2023-02-12T00:33:49;4.30;99.90
8261;DHT22;64115;50.170;8.242;2023-02-12T00:36:18;4.30;99.90
8261;DHT22;64115;50.170;8.242;2023-02-12T00:38:46;4.30;99.90
8261;DHT22;64115;50.170;8.242;2023-02-12T00:41:14;4.40;99.90
8261;DHT22;64115;50.170;8.242;2023-02-12T00:43:41;4.40;99.90
8261;DHT22;64115;50.170;8.242;2023-02-12T00:46:10;4.40;99.90
8261;DHT22;64115;50.170;8.242;2023-02-12T00:48:37;4.30;99.90
8261;DHT22;64115;50.170;8.242;2023-02-12T00:51:04;4.30;99.90
8261;DHT22;64115;50.170;8.242;2023-02-12T00:53:32;4.30;99.90
8261;DHT22;64115;50.170;8.242;2023-02-12T00:55:59;4.40;99.90
8261;DHT22;64115;50.170;8.242;2023-02-12T00:58:26;4.40;99.90
8261;DHT22;64115;50.170;8.242;2023-02-12T01:00:54;4.30;99.90
8261;DHT22;64115;50.170;8.242;2023-02-12T01:03:23;4.40;99.90
8261;DHT22;64115;50.170;8.242;2023-02-12T01:05:50;4.30;99.90
8261;DHT22;64115;50.170;8.242;2023-02-12T01:08:17;4.30;99.90
8261;DHT22;64115;50.170;8.242;2023-02-12T01:10:44;4.30;99.90
8261;DHT22;64115;50.170;8.242;2023-02-12T01:13:11;4.30;99.90
8261;DHT22;64115;50.170;8.242;2023-02-12T01:15:39;4.30;99.90
8261;DHT22;64115;50.170;8.242;2023-02-12T01:18:06;4.30;99.90
8261;DHT22;64115;50.170;8.242;2023-02-12T01:20:34;4.30;99.90
8261;DHT22;64115;50.170;8.242;2023-02-12T01:23:01;4.30;99.90
8261;DHT22;64115;50.170;8.242;2023-02-12T01:25:31;4.30;99.90
8261;DHT22;64115;50.170;8.242;2023-02-12T01:27:58;4.30;99.90
8261;DHT22;64115;50.170;8.242;2023-02-12T01:30:25;4.30;99.90
8261;DHT22;64115;50.170;8.242;2023-02-12T01:32:52;4.30;99.90
8261;DHT22;64115;50.170;8.242;2023-02-12T01:35:20;4.30;99.90
8261;DHT22;64115;50.170;8.242;2023-02-12T01:37:48;4.20;99.90
8261;DHT22;64115;50.170;8.242;2023-02-12T01:40:17;4.30;99.90
8261;DHT22;64115;50.170;8.242;2023-02-12T01:42:44;4.30;99.90
8261;DHT22;64115;50.170;8.242;2023-02-12T01:48:20;4.30;99.90
8261;DHT22;64115;50.170;8.242;2023-02-12T01:50:50;4.30;99.90
8261;DHT22;64115;50.170;8.242;2023-02-12T01:53:21;4.20;99.90
8261;DHT22;64115;50.170;8.242;2023-02-12T01:55:52;4.20;99.90
8261;DHT22;64115;50.170;8.242;2023-02-12T01:58:23;4.20;99.90
8261;DHT22;64115;50.170;8.242;2023-02-12T02:00:50;4.20;99.90
8261;DHT22;64115;50.170;8.242;2023-02-12T02:03:18;4.20;99.90
8261;DHT22;64115;50.170;8.242;2023-02-12T02:05:50;4.20;99.90
8261;DHT22;64115;50.170;8.242;2023-02-12T02:08:21;4.20;99.90
8261;DHT22;64115;50.170;8.242;2023-02-12T02:10:49;4.20;99.90
8261;DHT22;64115;50.170;8.242;2023-02-12T02:13:16;4.20;99.90
8261;DHT22;64115;50.170;8.242;2023-02-12T02:16:05;4.20;99.90
8261;DHT22;64115;50.170;8.242;2023-02-12T02:18:42;4.20;99.90
8261;DHT22;64115;50.170;8.242;2023-02-12T02:21:50;4.20;99.90
8261;DHT22;64115;50.170;8.242;2023-02-12T02:24:40;4.20;99.90
8261;DHT22;64115;50.170;8.242;2023-02-12T02:27:34;4.20;99.90
8261;DHT22;64115;50.170;8.242;2023-02-12T02:30:26;4.20;99.90
8261;DHT22;64115;50.170;8.242;2023-02-12T02:33:08;4.20;99.90
8261;DHT22;64115;50.170;8.242;2023-02-12T02:35:40;4.20;99.90
8261;DHT22;64115;50.170;8.242;2023-02-12T02:38:21;4.10;99.90
8261;DHT22;64115;50.170;8.242;2023-02-12T02:40:52;4.20;99.90
8261;DHT22;64115;50.170;8.242;2023-02-12T02:43:26;4.20;99.90
8261;DHT22;64115;50.170;8.242;2023-02-12T02:46:00;4.20;99.90
8261;DHT22;64115;50.170;8.242;2023-02-12T02:48:31;4.20;99.90
8261;DHT22;64115;50.170;8.242;2023-02-12T02:51:03;4.20;99.90
8261;DHT22;64115;50.170;8.242;2023-02-12T02:53:34;4.10;99.90
8261;DHT22;64115;50.170;8.242;2023-02-12T02:56:06;4.10;99.90
8261;DHT22;64115;50.170;8.242;2023-02-12T02:58:38;4.10;99.90
8261;DHT22;64115;50.170;8.242;2023-02-12T03:01:10;4.10;99.90
8261;DHT22;64115;50.170;8.242;2023-02-12T03:03:43;4.10;99.90
8261;DHT22;64115;50.170;8.242;2023-02-12T03:06:14;4.10;99.90
8261;DHT22;64115;50.170;8.242;2023-02-12T03:08:48;4.20;99.90
8261;DHT22;64115;50.170;8.242;2023-02-12T03:11:20;4.20;99.90
8261;DHT22;64115;50.170;8.242;2023-02-12T03:13:53;4.20;99.90
8261;DHT22;64115;50.170;8.242;2023-02-12T03:16:28;4.20;99.90
8261;DHT22;64115;50.170;8.242;2023-02-12T03:19:02;4.20;99.90
8261;DHT22;64115;50.170;8.242;2023-02-12T03:21:36;4.30;99.90
8261;DHT22;64115;50.170;8.242;2023-02-12T03:24:10;4.20;99.90
8261;DHT22;64115;50.170;8.242;2023-02-12T03:26:44;4.20;99.90
8261;DHT22;64115;50.170;8.242;2023-02-12T03:29:12;4.20;99.90
8261;DHT22;64115;50.170;8.242;2023-02-12T03:31:52;4.20;99.90
8261;DHT22;64115;50.170;8.242;2023-02-12T03:34:27;4.20;99.90
8261;DHT22;64115;50.170;8.242;2023-02-12T03:36:59;4.20;99.90
8261;DHT22;64115;50.170;8.242;2023-02-12T03:39:31;4.20;99.90
8261;DHT22;64115;50.170;8.242;2023-02-12T03:42:04;4.20;99.90
8261;DHT22;64115;50.170;8.242;2023-02-12T03:44:47;4.30;99.90
8261;DHT22;64115;50.170;8.242;2023-02-12T03:47:26;4.30;99.90
8261;DHT22;64115;50.170;8.242;2023-02-12T03:50:02;4.20;99.90
8261;DHT22;64115;50.170;8.242;2023-02-12T03:52:32;4.20;99.90
8261;DHT22;64115;50.170;8.242;2023-02-12T03:55:00;4.30;99.90
8261;DHT22;64115;50.170;8.242;2023-02-12T03:57:30;4.30;99.90
8261;DHT22;64115;50.170;8.242;2023-02-12T04:00:02;4.30;99.90
8261;DHT22;64115;50.170;8.242;2023-02-12T04:02:32;4.30;99.90
8261;DHT22;64115;50.170;8.242;2023-02-12T04:05:04;4.30;99.90
8261;DHT22;64115;50.170;8.242;2023-02-12T04:07:32;4.30;99.90
8261;DHT22;64115;50.170;8.242;2023-02-12T04:09:59;4.30;99.90
8261;DHT22;64115;50.170;8.242;2023-02-12T04:12:34;4.20;99.90
8261;DHT22;64115;50.170;8.242;2023-02-12T04:15:34;4.20;99.90
8261;DHT22;64115;50.170;8.242;2023-02-12T04:18:10;4.20;99.90
8261;DHT22;64115;50.170;8.242;2023-02-12T04:20:45;4.20;99.90
8261;DHT22;64115;50.170;8.242;2023-02-12T04:23:21;4.20;99.90
8261;DHT22;64115;50.170;8.242;2023-02-12T04:25:55;4.20;99.90
8261;DHT22;64115;50.170;8.242;2023-02-12T04:28:33;4.30;99.90
8261;DHT22;64115;50.170;8.242;2023-02-12T04:31:06;4.30;99.90
8261;DHT22;64115;50.170;8.242;2023-02-12T04:33:43;4.30;99.90
8261;DHT22;64115;50.170;8.242;2023-02-12T04:36:15;4.30;99.90
8261;DHT22;64115;50.170;8.242;2023-02-12T04:38:49;4.20;99.90
8261;DHT22;64115;50.170;8.242;2023-02-12T04:41:17;4.30;99.90
8261;DHT22;64115;50.170;8.242;2023-02-12T04:43:44;4.30;99.90
8261;DHT22;64115;50.170;8.242;2023-02-12T04:46:11;4.30;99.90
8261;DHT22;64115;50.170;8.242;2023-02-12T04:48:49;4.30;99.90
8261;DHT22;64115;50.170;8.242;2023-02-12T04:51:16;4.40;99.90
8261;DHT22;64115;50.170;8.242;2023-02-12T04:53:43;4.30;99.90
8261;DHT22;64115;50.170;8.242;2023-02-12T04:56:11;4.30;99.90
8261;DHT22;64115;50.170;8.242;2023-02-12T04:58:38;4.30;99.90
8261;DHT22;64115;50.170;8.242;2023-02-12T05:01:06;4.30;99.90
8261;DHT22;64115;50.170;8.242;2023-02-12T05:03:33;4.40;99.90
8261;DHT22;64115;50.170;8.242;2023-02-12T05:06:03;4.40;99.90
8261;DHT22;64115;50.170;8.242;2023-02-12T05:08:31;4.40;99.90
8261;DHT22;64115;50.170;8.242;2023-02-12T05:11:03;4.40;99.90
8261;DHT22;64115;50.170;8.242;2023-02-12T05:13:30;4.40;99.90
8261;DHT22;64115;50.170;8.242;2023-02-12T05:15:57;4.50;99.90
8261;DHT22;64115;50.170;8.242;2023-02-12T05:18:24;4.50;99.90
8261;DHT22;64115;50.170;8.242;2023-02-12T05:20:55;4.50;99.90
8261;DHT22;64115;50.170;8.242;2023-02-12T05:23:25;4.50;99.90
8261;DHT22;64115;50.170;8.242;2023-02-12T05:25:53;4.50;99.90
8261;DHT22;64115;50.170;8.242;2023-02-12T05:28:20;4.50;99.90
8261;DHT22;64115;50.170;8.242;2023-02-12T05:30:47;4.50;99.90
8261;DHT22;64115;50.170;8.242;2023-02-12T05:33:14;4.50;99.90
8261;DHT22;64115;50.170;8.242;2023-02-12T05:35:41;4.50;99.90
8261;DHT22;64115;50.170;8.242;2023-02-12T05:38:08;4.40;99.90
8261;DHT22;64115;50.170;8.242;2023-02-12T05:40:37;4.40;99.90
8261;DHT22;64115;50.170;8.242;2023-02-12T05:43:04;4.50;99.90
8261;DHT22;64115;50.170;8.242;2023-02-12T05:45:31;4.50;99.90
8261;DHT22;64115;50.170;8.242;2023-02-12T05:47:58;4.50;99.90
8261;DHT22;64115;50.170;8.242;2023-02-12T05:50:25;4.50;99.90
8261;DHT22;64115;50.170;8.242;2023-02-12T05:52:52;4.50;99.90
8261;DHT22;64115;50.170;8.242;2023-02-12T05:55:20;4.50;99.90
8261;DHT22;64115;50.170;8.242;2023-02-12T05:57:49;4.50;99.90
8261;DHT22;64115;50.170;8.242;2023-02-12T06:00:17;4.40;99.90
8261;DHT22;64115;50.170;8.242;2023-02-12T06:02:45;4.40;99.90
8261;DHT22;64115;50.170;8.242;2023-02-12T06:05:12;4.40;99.90
8261;DHT22;64115;50.170;8.242;2023-02-12T06:07:39;4.50;99.90
8261;DHT22;64115;50.170;8.242;2023-02-12T06:10:07;4.50;99.90
8261;DHT22;64115;50.170;8.242;2023-02-12T06:12:34;4.50;99.90
8261;DHT22;64115;50.170;8.242;2023-02-12T06:15:03;4.50;99.90
8261;DHT22;64115;50.170;8.242;2023-02-12T06:17:30;4.40;99.90
8261;DHT22;64115;50.170;8.242;2023-02-12T06:19:57;4.50;99.90
8261;DHT22;64115;50.170;8.242;2023-02-12T06:22:24;4.50;99.90
8261;DHT22;64115;50.170;8.242;2023-02-12T06:24:51;4.50;99.90
8261;DHT22;64115;50.170;8.242;2023-02-12T06:27:18;4.50;99.90
8261;DHT22;64115;50.170;8.242;2023-02-12T06:29:45;4.50;99.90
8261;DHT22;64115;50.170;8.242;2023-02-12T06:32:13;4.50;99.90
8261;DHT22;64115;50.170;8.242;2023-02-12T06:34:40;4.50;99.90
8261;DHT22;64115;50.170;8.242;2023-02-12T06:37:07;4.50;99.90
8261;DHT22;64115;50.170;8.242;2023-02-12T06:39:35;4.50;99.90
8261;DHT22;64115;50.170;8.242;2023-02-12T06:42:02;4.50;99.90
8261;DHT22;64115;50.170;8.242;2023-02-12T06:44:29;4.50;99.90
8261;DHT22;64115;50.170;8.242;2023-02-12T06:46:56;4.50;99.90
8261;DHT22;64115;50.170;8.242;2023-02-12T06:49:25;4.50;99.90
8261;DHT22;64115;50.170;8.242;2023-02-12T06:51:51;4.40;99.90
8261;DHT22;64115;50.170;8.242;2023-02-12T06:54:18;4.50;99.90
8261;DHT22;64115;50.170;8.242;2023-02-12T06:56:45;4.40;99.90
8261;DHT22;64115;50.170;8.242;2023-02-12T06:59:14;4.50;99.90
8261;DHT22;64115;50.170;8.242;2023-02-12T07:01:42;4.50;99.90
8261;DHT22;64115;50.170;8.242;2023-02-12T07:04:10;4.50;99.90
8261;DHT22;64115;50.170;8.242;2023-02-12T07:06:38;4.50;99.90
8261;DHT22;64115;50.170;8.242;2023-02-12T07:09:05;4.50;99.90
8261;DHT22;64115;50.170;8.242;2023-02-12T07:11:35;4.60;99.90
8261;DHT22;64115;50.170;8.242;2023-02-12T07:14:02;4.60;99.90
8261;DHT22;64115;50.170;8.242;2023-02-12T07:16:29;4.50;99.90
8261;DHT22;64115;50.170;8.242;2023-02-12T07:18:56;4.60;99.90
8261;DHT22;64115;50.170;8.242;2023-02-12T07:21:23;4.60;99.90
8261;DHT22;64115;50.170;8.242;2023-02-12T07:23:52;4.70;99.90
8261;DHT22;64115;50.170;8.242;2023-02-12T07:26:20;4.70;99.90
8261;DHT22;64115;50.170;8.242;2023-02-12T07:28:48;4.70;99.90
8261;DHT22;64115;50.170;8.242;2023-02-12T07:31:17;4.60;99.90
8261;DHT22;64115;50.170;8.242;2023-02-12T07:33:45;4.70;99.90
8261;DHT22;64115;50.170;8.242;2023-02-12T07:36:14;4.70;99.90
8261;DHT22;64115;50.170;8.242;2023-02-12T07:38:41;4.70;99.90
8261;DHT22;64115;50.170;8.242;2023-02-12T07:41:11;4.80;99.90
8261;DHT22;64115;50.170;8.242;2023-02-12T07:43:40;4.80;99.90
8261;DHT22;64115;50.170;8.242;2023-02-12T07:46:10;4.80;99.90
8261;DHT22;64115;50.170;8.242;2023-02-12T07:48:38;4.90;99.90
8261;DHT22;64115;50.170;8.242;2023-02-12T07:51:07;4.90;99.90
8261;DHT22;64115;50.170;8.242;2023-02-12T07:53:35;4.90;99.90
8261;DHT22;64115;50.170;8.242;2023-02-12T07:56:11;4.90;99.90
8261;DHT22;64115;50.170;8.242;2023-02-12T07:58:40;4.90;99.90
8261;DHT22;64115;50.170;8.242;2023-02-12T08:01:16;5.00;99.90
8261;DHT22;64115;50.170;8.242;2023-02-12T08:03:43;5.00;99.90
8261;DHT22;64115;50.170;8.242;2023-02-12T08:06:12;5.00;99.90
8261;DHT22;64115;50.170;8.242;2023-02-12T08:08:39;5.10;99.90
8261;DHT22;64115;50.170;8.242;2023-02-12T08:11:08;5.10;99.90
8261;DHT22;64115;50.170;8.242;2023-02-12T08:13:37;5.20;99.90
8261;DHT22;64115;50.170;8.242;2023-02-12T08:16:06;5.20;99.90
8261;DHT22;64115;50.170;8.242;2023-02-12T08:18:34;5.30;99.90
8261;DHT22;64115;50.170;8.242;2023-02-12T08:21:02;5.30;99.90
8261;DHT22;64115;50.170;8.242;2023-02-12T08:23:29;5.40;99.90
8261;DHT22;64115;50.170;8.242;2023-02-12T08:26:05;5.40;99.90
8261;DHT22;64115;50.170;8.242;2023-02-12T08:28:32;5.40;99.90
8261;DHT22;64115;50.170;8.242;2023-02-12T08:31:01;5.40;99.90
8261;DHT22;64115;50.170;8.242;2023-02-12T08:33:28;5.40;99.90
8261;DHT22;64115;50.170;8.242;2023-02-12T08:36:04;5.40;99.90
8261;DHT22;64115;50.170;8.242;2023-02-12T08:38:31;5.40;99.90
8261;DHT22;64115;50.170;8.242;2023-02-12T08:41:03;5.40;99.90
8261;DHT22;64115;50.170;8.242;2023-02-12T08:43:31;5.50;99.90
8261;DHT22;64115;50.170;8.242;2023-02-12T08:46:04;5.50;99.90
8261;DHT22;64115;50.170;8.242;2023-02-12T08:48:31;5.60;99.90
8261;DHT22;64115;50.170;8.242;2023-02-12T08:51:06;5.60;99.90
8261;DHT22;64115;50.170;8.242;2023-02-12T08:53:33;5.50;99.90
8261;DHT22;64115;50.170;8.242;2023-02-12T08:56:00;5.50;99.90
8261;DHT22;64115;50.170;8.242;2023-02-12T08:58:28;5.50;99.90
8261;DHT22;64115;50.170;8.242;2023-02-12T09:00:55;5.60;99.90
8261;DHT22;64115;50.170;8.242;2023-02-12T09:03:23;5.70;99.90
8261;DHT22;64115;50.170;8.242;2023-02-12T09:05:50;5.80;99.90
8261;DHT22;64115;50.170;8.242;2023-02-12T09:08:17;5.90;99.90
8261;DHT22;64115;50.170;8.242;2023-02-12T09:10:45;6.00;99.90
8261;DHT22;64115;50.170;8.242;2023-02-12T09:13:13;6.10;99.90
8261;DHT22;64115;50.170;8.242;2023-02-12T09:15:42;6.20;99.90
8261;DHT22;64115;50.170;8.242;2023-02-12T09:18:10;6.20;99.90
8261;DHT22;64115;50.170;8.242;2023-02-12T09:20:41;6.30;99.90
8261;DHT22;64115;50.170;8.242;2023-02-12T09:23:10;6.40;99.90
8261;DHT22;64115;50.170;8.242;2023-02-12T09:25:39;6.40;99.90
8261;DHT22;64115;50.170;8.242;2023-02-12T09:28:06;6.40;99.90
8261;DHT22;64115;50.170;8.242;2023-02-12T09:30:34;6.50;99.90
8261;DHT22;64115;50.170;8.242;2023-02-12T09:33:05;6.60;99.90
8261;DHT22;64115;50.170;8.242;2023-02-12T09:35:33;6.60;99.90
8261;DHT22;64115;50.170;8.242;2023-02-12T09:38:03;6.60;99.90
8261;DHT22;64115;50.170;8.242;2023-02-12T09:40:35;6.60;99.90
8261;DHT22;64115;50.170;8.242;2023-02-12T09:43:16;6.50;99.90
8261;DHT22;64115;50.170;8.242;2023-02-12T09:45:49;6.50;99.90
8261;DHT22;64115;50.170;8.242;2023-02-12T09:48:33;6.40;99.90
8261;DHT22;64115;50.170;8.242;2023-02-12T09:51:04;6.50;99.90
8261;DHT22;64115;50.170;8.242;2023-02-12T09:53:40;6.50;99.90
8261;DHT22;64115;50.170;8.242;2023-02-12T09:56:15;6.60;99.90
8261;DHT22;64115;50.170;8.242;2023-02-12T09:58:46;6.50;99.90
8261;DHT22;64115;50.170;8.242;2023-02-12T10:01:18;6.60;99.90
8261;DHT22;64115;50.170;8.242;2023-02-12T10:03:47;6.70;99.90
8261;DHT22;64115;50.170;8.242;2023-02-12T10:06:17;6.70;99.90
8261;DHT22;64115;50.170;8.242;2023-02-12T10:09:14;6.70;99.90
8261;DHT22;64115;50.170;8.242;2023-02-12T10:11:57;6.70;99.90
8261;DHT22;64115;50.170;8.242;2023-02-12T10:14:52;6.80;99.90
8261;DHT22;64115;50.170;8.242;2023-02-12T10:17:31;6.80;99.90
8261;DHT22;64115;50.170;8.242;2023-02-12T10:20:10;6.70;99.90
8261;DHT22;64115;50.170;8.242;2023-02-12T10:22:46;6.70;99.90
8261;DHT22;64115;50.170;8.242;2023-02-12T10:25:23;6.70;99.90
8261;DHT22;64115;50.170;8.242;2023-02-12T10:27:54;6.60;99.90
8261;DHT22;64115;50.170;8.242;2023-02-12T10:30:24;6.60;99.90
8261;DHT22;64115;50.170;8.242;2023-02-12T10:32:58;6.60;99.90
8261;DHT22;64115;50.170;8.242;2023-02-12T10:35:26;6.60;99.90
8261;DHT22;64115;50.170;8.242;2023-02-12T10:37:59;6.60;99.90
8261;DHT22;64115;50.170;8.242;2023-02-12T10:40:30;6.70;99.90
8261;DHT22;64115;50.170;8.242;2023-02-12T10:42:59;6.70;99.90
8261;DHT22;64115;50.170;8.242;2023-02-12T10:45:30;6.70;99.90
8261;DHT22;64115;50.170;8.242;2023-02-12T10:48:07;6.70;99.90
8261;DHT22;64115;50.170;8.242;2023-02-12T10:50:46;6.90;99.90
8261;DHT22;64115;50.170;8.242;2023-02-12T10:53:19;6.80;99.90
8261;DHT22;64115;50.170;8.242;2023-02-12T10:55:47;6.80;99.90
8261;DHT22;64115;50.170;8.242;2023-02-12T10:58:20;6.80;99.90
8261;DHT22;64115;50.170;8.242;2023-02-12T11:00:56;6.80;99.90
8261;DHT22;64115;50.170;8.242;2023-02-12T11:03:29;6.90;99.90
8261;DHT22;64115;50.170;8.242;2023-02-12T11:06:11;7.00;99.90
8261;DHT22;64115;50.170;8.242;2023-02-12T11:08:39;7.00;99.90
8261;DHT22;64115;50.170;8.242;2023-02-12T11:11:10;7.00;99.90
8261;DHT22;64115;50.170;8.242;2023-02-12T11:13:39;6.90;99.90
8261;DHT22;64115;50.170;8.242;2023-02-12T11:16:07;7.00;99.90
8261;DHT22;64115;50.170;8.242;2023-02-12T11:18:35;7.00;99.90
8261;DHT22;64115;50.170;8.242;2023-02-12T11:21:05;6.90;99.90
8261;DHT22;64115;50.170;8.242;2023-02-12T11:23:34;6.90;99.90
8261;DHT22;64115;50.170;8.242;2023-02-12T11:26:04;7.00;99.90
8261;DHT22;64115;50.170;8.242;2023-02-12T11:28:35;7.10;99.90
8261;DHT22;64115;50.170;8.242;2023-02-12T11:31:16;7.10;99.90
8261;DHT22;64115;50.170;8.242;2023-02-12T11:33:46;7.10;99.90
8261;DHT22;64115;50.170;8.242;2023-02-12T11:36:17;7.10;99.90
8261;DHT22;64115;50.170;8.242;2023-02-12T11:38:48;7.10;99.90
8261;DHT22;64115;50.170;8.242;2023-02-12T11:41:23;7.10;99.90
8261;DHT22;64115;50.170;8.242;2023-02-12T11:43:54;7.10;99.90
8261;DHT22;64115;50.170;8.242;2023-02-12T11:46:23;7.10;99.90
8261;DHT22;64115;50.170;8.242;2023-02-12T11:48:52;7.10;99.90
8261;DHT22;64115;50.170;8.242;2023-02-12T11:51:25;7.10;99.90
8261;DHT22;64115;50.170;8.242;2023-02-12T11:53:56;7.10;99.90
8261;DHT22;64115;50.170;8.242;2023-02-12T11:56:40;7.20;99.90
8261;DHT22;64115;50.170;8.242;2023-02-12T11:59:16;7.30;99.90
8261;DHT22;64115;50.170;8.242;2023-02-12T12:01:47;7.30;99.90
8261;DHT22;64115;50.170;8.242;2023-02-12T12:04:18;7.30;99.90
8261;DHT22;64115;50.170;8.242;2023-02-12T12:06:52;7.30;99.90
8261;DHT22;64115;50.170;8.242;2023-02-12T12:09:24;7.40;99.90
8261;DHT22;64115;50.170;8.242;2023-02-12T12:11:58;7.50;99.90
8261;DHT22;64115;50.170;8.242;2023-02-12T12:14:33;7.50;99.90
8261;DHT22;64115;50.170;8.242;2023-02-12T12:17:25;7.50;99.90
8261;DHT22;64115;50.170;8.242;2023-02-12T12:20:13;7.40;99.90
8261;DHT22;64115;50.170;8.242;2023-02-12T12:22:49;7.50;99.90
8261;DHT22;64115;50.170;8.242;2023-02-12T12:25:23;7.50;99.90
8261;DHT22;64115;50.170;8.242;2023-02-12T12:27:57;7.60;99.90
8261;DHT22;64115;50.170;8.242;2023-02-12T12:30:40;7.60;99.90
8261;DHT22;64115;50.170;8.242;2023-02-12T12:33:15;7.80;99.90
8261;DHT22;64115;50.170;8.242;2023-02-12T12:35:50;7.70;99.90
8261;DHT22;64115;50.170;8.242;2023-02-12T12:38:30;7.70;99.90
8261;DHT22;64115;50.170;8.242;2023-02-12T12:41:09;7.70;99.90
8261;DHT22;64115;50.170;8.242;2023-02-12T12:43:48;7.70;99.90
8261;DHT22;64115;50.170;8.242;2023-02-12T12:46:30;7.80;99.90
8261;DHT22;64115;50.170;8.242;2023-02-12T12:52:02;7.80;99.90
8261;DHT22;64115;50.170;8.242;2023-02-12T12:54:54;7.90;99.90
8261;DHT22;64115;50.170;8.242;2023-02-12T12:57:33;7.90;99.90
8261;DHT22;64115;50.170;8.242;2023-02-12T13:00:30;7.90;99.90
8261;DHT22;64115;50.170;8.242;2023-02-12T13:12:20;7.60;99.90
8261;DHT22;64115;50.170;8.242;2023-02-12T13:15:00;7.60;99.90
8261;DHT22;64115;50.170;8.242;2023-02-12T13:17:32;7.60;99.90
8261;DHT22;64115;50.170;8.242;2023-02-12T13:20:09;7.60;99.90
8261;DHT22;64115;50.170;8.242;2023-02-12T13:22:43;7.60;99.90
8261;DHT22;64115;50.170;8.242;2023-02-12T13:25:21;7.70;99.90
8261;DHT22;64115;50.170;8.242;2023-02-12T13:27:50;7.80;99.90
8261;DHT22;64115;50.170;8.242;2023-02-12T13:30:20;7.90;99.90
8261;DHT22;64115;50.170;8.242;2023-02-12T13:32:54;7.80;99.90
8261;DHT22;64115;50.170;8.242;2023-02-12T13:35:26;7.80;99.90
8261;DHT22;64115;50.170;8.242;2023-02-12T13:37:56;7.80;99.90
8261;DHT22;64115;50.170;8.242;2023-02-12T13:40:25;7.80;99.90
8261;DHT22;64115;50.170;8.242;2023-02-12T13:42:57;7.70;99.90
8261;DHT22;64115;50.170;8.242;2023-02-12T13:45:34;7.80;99.90
8261;DHT22;64115;50.170;8.242;2023-02-12T13:48:30;7.90;99.90
8261;DHT22;64115;50.170;8.242;2023-02-12T13:51:07;7.80;99.90
8261;DHT22;64115;50.170;8.242;2023-02-12T13:53:45;7.80;99.90
8261;DHT22;64115;50.170;8.242;2023-02-12T13:56:27;7.70;99.90
8261;DHT22;64115;50.170;8.242;2023-02-12T13:58:55;7.80;99.90
8261;DHT22;64115;50.170;8.242;2023-02-12T14:01:44;7.80;99.90
8261;DHT22;64115;50.170;8.242;2023-02-12T14:04:27;7.90;99.90
8261;DHT22;64115;50.170;8.242;2023-02-12T14:06:59;8.00;99.90
8261;DHT22;64115;50.170;8.242;2023-02-12T14:09:36;8.00;99.90
8261;DHT22;64115;50.170;8.242;2023-02-12T14:12:06;8.10;99.90
8261;DHT22;64115;50.170;8.242;2023-02-12T14:14:41;8.10;99.90
8261;DHT22;64115;50.170;8.242;2023-02-12T14:17:38;8.20;99.90
8261;DHT22;64115;50.170;8.242;2023-02-12T14:20:21;8.20;99.90
8261;DHT22;64115;50.170;8.242;2023-02-12T14:23:03;8.30;99.90
8261;DHT22;64115;50.170;8.242;2023-02-12T14:25:54;8.30;99.90
8261;DHT22;64115;50.170;8.242;2023-02-12T14:28:26;8.20;99.90
8261;DHT22;64115;50.170;8.242;2023-02-12T14:31:20;8.10;99.90
8261;DHT22;64115;50.170;8.242;2023-02-12T14:33:50;8.00;99.90
8261;DHT22;64115;50.170;8.242;2023-02-12T14:36:34;8.00;99.90
8261;DHT22;64115;50.170;8.242;2023-02-12T14:39:26;7.80;99.90
8261;DHT22;64115;50.170;8.242;2023-02-12T14:41:55;7.80;99.90
8261;DHT22;64115;50.170;8.242;2023-02-12T14:44:54;7.80;99.90
8261;DHT22;64115;50.170;8.242;2023-02-12T14:50:24;7.90;99.90
8261;DHT22;64115;50.170;8.242;2023-02-12T14:53:03;7.90;99.90
8261;DHT22;64115;50.170;8.242;2023-02-12T14:55:32;7.90;99.90
8261;DHT22;64115;50.170;8.242;2023-02-12T14:58:04;7.90;99.90
8261;DHT22;64115;50.170;8.242;2023-02-12T15:00:38;7.80;99.90
8261;DHT22;64115;50.170;8.242;2023-02-12T15:03:21;7.70;99.90
8261;DHT22;64115;50.170;8.242;2023-02-12T15:05:56;7.70;99.90
8261;DHT22;64115;50.170;8.242;2023-02-12T15:08:30;7.70;99.90
8261;DHT22;64115;50.170;8.242;2023-02-12T15:11:07;7.70;99.90
8261;DHT22;64115;50.170;8.242;2023-02-12T15:13:46;7.60;99.90
8261;DHT22;64115;50.170;8.242;2023-02-12T15:16:21;7.60;99.90
8261;DHT22;64115;50.170;8.242;2023-02-12T15:18:55;7.60;99.90
8261;DHT22;64115;50.170;8.242;2023-02-12T15:21:24;7.60;99.90
8261;DHT22;64115;50.170;8.242;2023-02-12T15:24:06;7.60;99.90
8261;DHT22;64115;50.170;8.242;2023-02-12T15:26:36;7.50;99.90
8261;DHT22;64115;50.170;8.242;2023-02-12T15:29:06;7.50;99.90
8261;DHT22;64115;50.170;8.242;2023-02-12T15:31:35;7.50;99.90
8261;DHT22;64115;50.170;8.242;2023-02-12T15:34:03;7.60;99.90
8261;DHT22;64115;50.170;8.242;2023-02-12T15:36:31;7.60;99.90
8261;DHT22;64115;50.170;8.242;2023-02-12T15:39:02;7.50;99.90
8261;DHT22;64115;50.170;8.242;2023-02-12T15:41:39;7.50;99.90
8261;DHT22;64115;50.170;8.242;2023-02-12T15:44:24;7.50;99.90
8261;DHT22;64115;50.170;8.242;2023-02-12T15:46:55;7.50;99.90
8261;DHT22;64115;50.170;8.242;2023-02-12T15:49:28;7.40;99.90
8261;DHT22;64115;50.170;8.242;2023-02-12T15:51:56;7.40;99.90
8261;DHT22;64115;50.170;8.242;2023-02-12T15:54:24;7.40;99.90
8261;DHT22;64115;50.170;8.242;2023-02-12T15:56:52;7.30;99.90
8261;DHT22;64115;50.170;8.242;2023-02-12T15:59:21;7.30;99.90
8261;DHT22;64115;50.170;8.242;2023-02-12T16:01:55;7.20;99.90
8261;DHT22;64115;50.170;8.242;2023-02-12T16:04:23;7.20;99.90
8261;DHT22;64115;50.170;8.242;2023-02-12T16:06:51;7.10;99.90
8261;DHT22;64115;50.170;8.242;2023-02-12T16:09:24;7.10;99.90
8261;DHT22;64115;50.170;8.242;2023-02-12T16:11:54;7.10;99.90
8261;DHT22;64115;50.170;8.242;2023-02-12T16:14:24;7.10;99.90
8261;DHT22;64115;50.170;8.242;2023-02-12T16:16:54;7.00;99.90
8261;DHT22;64115;50.170;8.242;2023-02-12T16:19:25;7.00;99.90
8261;DHT22;64115;50.170;8.242;2023-02-12T16:21:55;6.90;99.90
8261;DHT22;64115;50.170;8.242;2023-02-12T16:24:27;6.90;99.90
8261;DHT22;64115;50.170;8.242;2023-02-12T16:26:56;6.90;99.90
8261;DHT22;64115;50.170;8.242;2023-02-12T16:29:24;6.90;99.90
8261;DHT22;64115;50.170;8.242;2023-02-12T16:31:56;6.80;99.90
8261;DHT22;64115;50.170;8.242;2023-02-12T16:34:34;6.70;99.90
8261;DHT22;64115;50.170;8.242;2023-02-12T16:37:03;6.70;99.90
8261;DHT22;64115;50.170;8.242;2023-02-12T16:40:18;6.60;99.90
8261;DHT22;64115;50.170;8.242;2023-02-12T16:42:56;6.60;99.90
8261;DHT22;64115;50.170;8.242;2023-02-12T16:45:38;6.50;99.90
8261;DHT22;64115;50.170;8.242;2023-02-12T16:48:11;6.40;99.90
8261;DHT22;64115;50.170;8.242;2023-02-12T16:50:47;6.30;99.90
8261;DHT22;64115;50.170;8.242;2023-02-12T16:53:33;6.20;99.90